Airfield :
LOGIN :

Register | Disclaimer

   EN    FR    IT 

 










Legend :    VFR   Marginal VFR   IFR   Intensive IFR   Very Intensive IFR
Visi :
Ceiling :
>= 8 km
>= 3000ft
5 to 8 km
1000 to 3000 ft
1500m to 5 km
500 to 1000 ft
800 to 1500m
200 to 500 ft
< 800m
< 200 ft
Symbols :   Thunderstorms  Fog  Heavy snow  Heavy precipitations  Wind > 20 kt
SIGMETs :     Misc.  Thunderstorms  Icing  Turbulence  Mountain Waves  Volcanic Ashes






- Airport Elevation : 755 ft
- IATA code : DRS


EDDC - Dresden Klotzsche

CURRENT METAR :
  • 281350Z 29005KT 260V330 9999 SCT011 BKN038 14/12 Q1023 NOSIG

EXPIRED METARs :
  • 281320Z 30005KT 250V340 9999 SCT010 SCT018 BKN039 14/12 Q1023 NOSIG
  • 281250Z 31006KT 260V340 9999 SCT008 SCT011 BKN017 14/12 Q1023 NOSIG
  • 281220Z 30006KT 9999 -RADZ BKN008 BKN017 14/12 Q1023 NOSIG
  • 281150Z 31004KT 270V040 9999 -RADZ BKN006 BKN017 14/13 Q1023 NOSIG
  • 281120Z 34006KT 300V010 6000 -RADZ BKN005 BKN017 13/13 Q1023 NOSIG

TAF TAF EDDC
Valid from the 28 at 12:00 until the 29 at 12:00 UTC


281100Z 2812/2912 31008KT 4000 -DZ BKN004
BECMG 2812/2814 8000 BKN015
BECMG 2814/2817 VRB03KT
TEMPO 2823/2906 2000 BR
BECMG 2903/2906 13005KT
TEMPO 2910/2912 4000 SHRA BKN020CB



MET'MAP, your aeronautical weather chart ! - Copyright ORBIFLY December 2007 - Disclaimer

ORBIFLY MET'MAP TEAM :

Programming & Development : Alexandra Zaïnal
Concept & original design : Baudouin d'Aumeries
Assistance for programming : Marc-Olivier Méhu
Technical & hardware support : Manuel Goepfert

Contact : metmap@orbifly.com




SOURCES & CREDITS :

   NOAA